Time;durP1;ratioP1;P1;durP2;ratioP2;P2;SDS_P1;SDS_P2;PMS_P1;PMS_P2;Temp;Humidity;BMP_temperature;BMP_pressure;BME280_temperature;BME280_humidity;BME280_pressure;Samples;Min_cycle;Max_cycle;Signal;HPM_P1;HPM_P2
2023/01/28 00:00:28;;;;;;;;;;;;;;;;;;1039897;28;19909;-81
2023/01/28 00:00:59;;;;;;;;;;;;;;;;;;1039446;28;20427;-80
2023/01/28 00:01:30;;;;;;;;;;;;;;;;;;1036156;28;19931;-81
2023/01/28 00:02:01;;;;;;;;;;;;;;;;;;1039631;28;20483;-81
2023/01/28 00:02:32;;;;;;;;;;;;;;;;;;1040105;28;20358;-81
2023/01/28 00:03:03;;;;;;;;;;;;;;;;;;1039440;28;19913;-81
2023/01/28 00:03:34;;;;;;;;;;;;;;;;;;1036940;28;19917;-81
2023/01/28 00:04:08;;;;;;;;;;;;;;;;;;1033720;28;19921;-81
2023/01/28 00:04:39;;;;;;;;;;;;;;;;;;1035844;28;19944;-80
2023/01/28 00:05:09;;;;;;;;;;;;;;;;;;1036392;28;19909;-81
2023/01/28 00:05:40;;;;;;;;;;;;;;;;;;1040413;28;19913;-82
2023/01/28 00:06:11;;;;;;;;;;;;;;;;;;1043591;28;19963;-81
2023/01/28 00:06:42;;;;;;;;;;;;;;;;;;1040010;28;19959;-80
2023/01/28 00:07:13;;;;;;;;;;;;;;;;;;1037897;28;19909;-80
2023/01/28 00:07:44;;;;;;;;;;;;;;;;;;1035942;28;19941;-82
2023/01/28 00:08:15;;;;;;;;;;;;;;;;;;1035495;28;20404;-82
2023/01/28 00:08:46;;;;;;;;;;;;;;;;;;1032004;28;20436;-81
2023/01/28 00:09:17;;;;;;;;;;;;;;;;;;1035541;28;19964;-81
2023/01/28 00:09:48;;;;;;;;;;;;;;;;;;1035966;28;19964;-80
2023/01/28 00:10:18;;;;;;;;;;;;;;;;;;1039834;28;19964;-81
2023/01/28 00:10:50;;;;;;;;;;;;;;;;;;1039357;28;20368;-81
2023/01/28 00:11:21;;;;;;;;;;;;;;;;;;1035618;28;19913;-80
2023/01/28 00:11:52;;;;;;;;;;;;;;;;;;1039919;28;20396;-81
2023/01/28 00:12:23;;;;;;;;;;;;;;;;;;1039836;28;20439;-80
2023/01/28 00:12:54;;;;;;;;;;;;;;;;;;1039622;28;19917;-81
2023/01/28 00:13:24;;;;;;;;;;;;;;;;;;1039523;28;20368;-80
2023/01/28 00:13:55;;;;;;;;;;;;;;;;;;1039732;28;19909;-81
2023/01/28 00:14:26;;;;;;;;;;;;;;;;;;1039580;28;20027;-80
2023/01/28 00:14:57;;;;;;;;;;;;;;;;;;1035714;28;20343;-81
2023/01/28 00:15:28;;;;;;;;;;;;;;;;;;1035638;28;19915;-80
2023/01/28 00:15:59;;;;;;;;;;;;;;;;;;1031986;28;19914;-81
2023/01/28 00:16:30;;;;;;;;;;;;;;;;;;1031543;28;19968;-80
2023/01/28 00:17:01;;;;;;;;;;;;;;;;;;1031785;28;19953;-81
2023/01/28 00:17:32;;;;;;;;;;;;;;;;;;1031460;28;19984;-80
2023/01/28 00:18:02;;;;;;;;;;;;;;;;;;1035792;28;19963;-81
2023/01/28 00:18:33;;;;;;;;;;;;;;;;;;1035490;28;19913;-80
2023/01/28 00:19:04;;;;;;;;;;;;;;;;;;1034682;28;20463;-81
2023/01/28 00:19:35;;;;;;;;;;;;;;;;;;1031589;28;19914;-80
2023/01/28 00:20:06;;;;;;;;;;;;;;;;;;1031747;28;19948;-81
2023/01/28 00:20:37;;;;;;;;;;;;;;;;;;1031932;28;19920;-77
2023/01/28 00:21:08;;;;;;;;;;;;;;;;;;1035828;28;20004;-81
2023/01/28 00:21:39;;;;;;;;;;;;;;;;;;1039822;28;19913;-81
2023/01/28 00:22:10;;;;;;;;;;;;;;;;;;1039813;28;19916;-81
2023/01/28 00:22:41;;;;;;;;;;;;;;;;;;1044443;28;19986;-81
2023/01/28 00:23:12;;;;;;;;;;;;;;;;;;1043897;28;19923;-79
2023/01/28 00:23:43;;;;;;;;;;;;;;;;;;1039795;28;20467;-80
2023/01/28 00:24:14;;;;;;;;;;;;;;;;;;1039567;28;19913;-81
2023/01/28 00:24:45;;;;;;;;;;;;;;;;;;1039741;28;19945;-80
2023/01/28 00:25:16;;;;;;;;;;;;;;;;;;1035685;28;19914;-80
2023/01/28 00:25:47;;;;;;;;;;;;;;;;;;1039616;28;19909;-80
2023/01/28 00:26:18;;;;;;;;;;;;;;;;;;1039375;28;20390;-79
2023/01/28 00:26:50;;;;;;;;;;;;;;;;;;1039826;28;19933;-79
2023/01/28 00:27:21;;;;;;;;;;;;;;;;;;1040034;28;19909;-79
2023/01/28 00:27:52;;;;;;;;;;;;;;;;;;1039667;28;19936;-80
2023/01/28 00:28:22;;;;;;;;;;;;;;;;;;1039311;28;20007;-80
2023/01/28 00:28:53;;;;;;;;;;;;;;;;;;1035541;28;19964;-79
2023/01/28 00:29:24;;;;;;;;;;;;;;;;;;1035621;28;19984;-79
2023/01/28 00:29:55;;;;;;;;;;;;;;;;;;1035646;28;20433;-79
2023/01/28 00:30:26;;;;;;;;;;;;;;;;;;1035635;28;20428;-80
2023/01/28 00:30:57;;;;;;;;;;;;;;;;;;1031955;28;20008;-80
2023/01/28 00:31:28;;;;;;;;;;;;;;;;;;1035452;28;20747;-79
2023/01/28 00:31:59;;;;;;;;;;;;;;;;;;1039415;28;20347;-80
2023/01/28 00:32:30;;;;;;;;;;;;;;;;;;1039686;28;20379;-79
2023/01/28 00:33:01;;;;;;;;;;;;;;;;;;1039378;28;19955;-79
2023/01/28 00:33:32;;;;;;;;;;;;;;;;;;1039509;28;19935;-79
2023/01/28 00:34:03;;;;;;;;;;;;;;;;;;1039754;28;20795;-80
2023/01/28 00:34:34;;;;;;;;;;;;;;;;;;1039441;28;19998;-80
2023/01/28 00:35:05;;;;;;;;;;;;;;;;;;1039923;28;20355;-79
2023/01/28 00:35:35;;;;;;;;;;;;;;;;;;1039481;28;19909;-80
2023/01/28 00:36:06;;;;;;;;;;;;;;;;;;1039648;28;19920;-80
2023/01/28 00:36:38;;;;;;;;;;;;;;;;;;1039427;28;20376;-79
2023/01/28 00:37:09;;;;;;;;;;;;;;;;;;1039742;28;19948;-80
2023/01/28 00:37:39;;;;;;;;;;;;;;;;;;1039553;28;19917;-80
2023/01/28 00:38:10;;;;;;;;;;;;;;;;;;1039520;28;19942;-80
2023/01/28 00:38:41;;;;;;;;;;;;;;;;;;1039656;28;19909;-80
2023/01/28 00:39:12;;;;;;;;;;;;;;;;;;1039592;28;19909;-80
2023/01/28 00:39:43;;;;;;;;;;;;;;;;;;1042324;28;19928;-79
2023/01/28 00:40:14;;;;;;;;;;;;;;;;;;1039196;28;20398;-80
2023/01/28 00:40:45;;;;;;;;;;;;;;;;;;1035550;28;20254;-79
2023/01/28 00:41:16;;;;;;;;;;;;;;;;;;1039595;28;19913;-80
2023/01/28 00:41:47;;;;;;;;;;;;;;;;;;1039792;28;19913;-80
2023/01/28 00:42:18;;;;;;;;;;;;;;;;;;1039917;28;19960;-80
2023/01/28 00:42:48;;;;;;;;;;;;;;;;;;1043783;28;19920;-80
2023/01/28 00:43:19;;;;;;;;;;;;;;;;;;1043499;28;19912;-79
2023/01/28 00:43:50;;;;;;;;;;;;;;;;;;1043508;28;20336;-80
2023/01/28 00:44:21;;;;;;;;;;;;;;;;;;1043721;28;20031;-80
2023/01/28 00:44:52;;;;;;;;;;;;;;;;;;1043746;28;19917;-79
2023/01/28 00:45:23;;;;;;;;;;;;;;;;;;1043467;28;19909;-80
2023/01/28 00:45:54;;;;;;;;;;;;;;;;;;1044075;28;19972;-80
2023/01/28 00:46:26;;;;;;;;;;;;;;;;;;1047771;28;19919;-79
2023/01/28 00:46:57;;;;;;;;;;;;;;;;;;1043599;28;19920;-80
2023/01/28 00:47:28;;;;;;;;;;;;;;;;;;1040049;28;19948;-80
2023/01/28 00:47:59;;;;;;;;;;;;;;;;;;1039796;28;19910;-79
2023/01/28 00:48:30;;;;;;;;;;;;;;;;;;1040992;28;20521;-79
2023/01/28 00:49:01;;;;;;;;;;;;;;;;;;1043892;28;19920;-79
2023/01/28 00:49:31;;;;;;;;;;;;;;;;;;1043509;28;19937;-82
2023/01/28 00:50:02;;;;;;;;;;;;;;;;;;1043715;28;20667;-82
2023/01/28 00:50:34;;;;;;;;;;;;;;;;;;1043680;28;20015;-81
2023/01/28 00:51:04;;;;;;;;;;;;;;;;;;1043898;28;19986;-80
2023/01/28 00:51:35;;;;;;;;;;;;;;;;;;1040039;28;19913;-80
2023/01/28 00:52:06;;;;;;;;;;;;;;;;;;1043575;28;19913;-79
2023/01/28 00:52:37;;;;;;;;;;;;;;;;;;1043657;28;19915;-80
2023/01/28 00:53:08;;;;;;;;;;;;;;;;;;1044089;28;20051;-80
2023/01/28 00:53:39;;;;;;;;;;;;;;;;;;1039646;28;20304;-80
2023/01/28 00:54:10;;;;;;;;;;;;;;;;;;1043146;28;19912;-79
2023/01/28 00:54:41;;;;;;;;;;;;;;;;;;1043547;28;19912;-82
2023/01/28 00:55:11;;;;;;;;;;;;;;;;;;1043872;28;19936;-81
2023/01/28 00:55:42;;;;;;;;;;;;;;;;;;1043672;28;20110;-79
2023/01/28 00:56:13;;;;;;;;;;;;;;;;;;1043949;28;19937;-78
2023/01/28 00:56:44;;;;;;;;;;;;;;;;;;1048107;28;19913;-81
2023/01/28 00:57:15;;;;;;;;;;;;;;;;;;1043631;28;19982;-78
2023/01/28 00:57:46;;;;;;;;;;;;;;;;;;1039420;28;20002;-80
2023/01/28 00:58:17;;;;;;;;;;;;;;;;;;1039654;28;20332;-79
2023/01/28 00:58:47;;;;;;;;;;;;;;;;;;1039722;28;19996;-81
2023/01/28 00:59:18;;;;;;;;;;;;;;;;;;1043984;28;19974;-80
2023/01/28 00:59:49;;;;;;;;;;;;;;;;;;1043435;28;19984;-80
2023/01/28 01:00:24;;;;;;;;;;;;;;;;;;1043585;28;20021;-80
2023/01/28 01:00:55;;;;;;;;;;;;;;;;;;1043433;28;19938;-80
2023/01/28 01:01:26;;;;;;;;;;;;;;;;;;1044424;28;19943;-80
2023/01/28 01:02:11;;;;;;;;;;;;;;;;;;1043541;28;20417;-80
2023/01/28 01:02:42;;;;;;;;;;;;;;;;;;1039549;28;19912;-81
2023/01/28 01:03:12;;;;;;;;;;;;;;;;;;1035274;28;19916;-80
2023/01/28 01:03:43;;;;;;;;;;;;;;;;;;1037468;28;20007;-80
2023/01/28 01:04:25;;;;;;;;;;;;;;;;;;1035586;28;20348;-79
2023/01/28 01:04:59;;;;;;;;;;;;;;;;;;1035613;28;19931;-80
2023/01/28 01:05:29;;;;;;;;;;;;;;;;;;1033397;28;19906;-80
2023/01/28 01:06:00;;;;;;;;;;;;;;;;;;1037296;28;19910;-79
2023/01/28 01:06:31;;;;;;;;;;;;;;;;;;1040405;28;19917;-80
2023/01/28 01:07:02;;;;;;;;;;;;;;;;;;1040951;28;20382;-79
2023/01/28 01:07:42;;;;;;;;;;;;;;;;;;1039323;28;19955;-79
2023/01/28 01:08:13;;;;;;;;;;;;;;;;;;1039318;28;19996;-81
2023/01/28 01:08:48;;;;;;;;;;;;;;;;;;1039997;28;19905;-80
2023/01/28 01:09:21;;;;;;;;;;;;;;;;;;1045635;28;19909;-80
2023/01/28 01:09:52;;;;;;;;;;;;;;;;;;1046989;28;20357;-80
2023/01/28 01:10:23;;;;;;;;;;;;;;;;;;1046596;28;20454;-80
2023/01/28 01:10:54;;;;;;;;;;;;;;;;;;1047048;28;19908;-80
2023/01/28 01:11:24;;;;;;;;;;;;;;;;;;1043534;28;20323;-79
2023/01/28 01:11:55;;;;;;;;;;;;;;;;;;1047035;28;19934;-80
2023/01/28 01:12:26;;;;;;;;;;;;;;;;;;1047727;28;19908;-80
2023/01/28 01:12:58;;;;;;;;;;;;;;;;;;1043899;28;20394;-80
2023/01/28 01:13:29;;;;;;;;;;;;;;;;;;1043541;28;19958;-80
2023/01/28 01:14:00;;;;;;;;;;;;;;;;;;1042106;28;19905;-80
2023/01/28 01:14:33;;;;;;;;;;;;;;;;;;1039849;28;20075;-81
2023/01/28 01:15:07;;;;;;;;;;;;;;;;;;1047037;28;19943;-80
2023/01/28 01:15:38;;;;;;;;;;;;;;;;;;1043449;28;20317;-80
2023/01/28 01:16:09;;;;;;;;;;;;;;;;;;1043453;28;20426;-79
2023/01/28 01:16:40;;;;;;;;;;;;;;;;;;1043442;28;19915;-79
2023/01/28 01:17:11;;;;;;;;;;;;;;;;;;1043932;28;19909;-80
2023/01/28 01:17:42;;;;;;;;;;;;;;;;;;1043449;28;19963;-80
2023/01/28 01:18:12;;;;;;;;;;;;;;;;;;1043568;28;19905;-80
2023/01/28 01:18:43;;;;;;;;;;;;;;;;;;1043665;28;20292;-81
2023/01/28 01:19:14;;;;;;;;;;;;;;;;;;1043211;28;20034;-79
2023/01/28 01:19:45;;;;;;;;;;;;;;;;;;1043709;28;19936;-80
2023/01/28 01:20:16;;;;;;;;;;;;;;;;;;1043780;28;19909;-80
2023/01/28 01:20:48;;;;;;;;;;;;;;;;;;1039507;28;19909;-79
2023/01/28 01:21:19;;;;;;;;;;;;;;;;;;1043682;28;19905;-80
2023/01/28 01:21:50;;;;;;;;;;;;;;;;;;1043455;28;19951;-80
2023/01/28 01:22:21;;;;;;;;;;;;;;;;;;1043378;28;20379;-80
2023/01/28 01:22:52;;;;;;;;;;;;;;;;;;1043253;28;19932;-80
2023/01/28 01:23:23;;;;;;;;;;;;;;;;;;1043569;28;19905;-80
2023/01/28 01:23:54;;;;;;;;;;;;;;;;;;1043436;28;19909;-79
2023/01/28 01:24:28;;;;;;;;;;;;;;;;;;1043739;28;19909;-80
2023/01/28 01:24:59;;;;;;;;;;;;;;;;;;1042854;28;19909;-81
2023/01/28 01:25:30;;;;;;;;;;;;;;;;;;1042806;28;19909;-80
2023/01/28 01:26:01;;;;;;;;;;;;;;;;;;1036060;28;20435;-80
2023/01/28 01:26:32;;;;;;;;;;;;;;;;;;1039563;28;19917;-80
2023/01/28 01:27:04;;;;;;;;;;;;;;;;;;1043457;28;19999;-80
2023/01/28 01:27:35;;;;;;;;;;;;;;;;;;1039782;28;19999;-80
2023/01/28 01:28:06;;;;;;;;;;;;;;;;;;1043377;28;19959;-79
2023/01/28 01:28:37;;;;;;;;;;;;;;;;;;1043687;28;20371;-80
2023/01/28 01:29:08;;;;;;;;;;;;;;;;;;1043543;28;19916;-80
2023/01/28 01:29:39;;;;;;;;;;;;;;;;;;1043829;28;20363;-80
2023/01/28 01:30:10;;;;;;;;;;;;;;;;;;1043594;28;20711;-80
2023/01/28 01:30:41;;;;;;;;;;;;;;;;;;1043806;28;19906;-80
2023/01/28 01:31:13;;;;;;;;;;;;;;;;;;1044122;28;19909;-81
2023/01/28 01:31:44;;;;;;;;;;;;;;;;;;1048122;28;19912;-81
2023/01/28 01:32:15;;;;;;;;;;;;;;;;;;1047530;28;19908;-80
2023/01/28 01:32:46;;;;;;;;;;;;;;;;;;1043554;28;19908;-79
2023/01/28 01:33:17;;;;;;;;;;;;;;;;;;1043107;28;19955;-81
2023/01/28 01:33:48;;;;;;;;;;;;;;;;;;1043655;28;19905;-80
2023/01/28 01:34:19;;;;;;;;;;;;;;;;;;1039688;28;20381;-80
2023/01/28 01:34:49;;;;;;;;;;;;;;;;;;1039371;28;19915;-81
2023/01/28 01:35:20;;;;;;;;;;;;;;;;;;1039696;28;19905;-81
2023/01/28 01:35:51;;;;;;;;;;;;;;;;;;1039679;28;20383;-80
2023/01/28 01:36:22;;;;;;;;;;;;;;;;;;1043634;28;20418;-79
2023/01/28 01:36:53;;;;;;;;;;;;;;;;;;1039378;28;19909;-80
2023/01/28 01:37:24;;;;;;;;;;;;;;;;;;1043838;28;19905;-80
2023/01/28 01:37:56;;;;;;;;;;;;;;;;;;1043578;28;20380;-80
2023/01/28 01:38:27;;;;;;;;;;;;;;;;;;1043383;28;19924;-80
2023/01/28 01:38:58;;;;;;;;;;;;;;;;;;1043701;28;19912;-80
2023/01/28 01:39:29;;;;;;;;;;;;;;;;;;1039281;28;19949;-80
2023/01/28 01:40:01;;;;;;;;;;;;;;;;;;1039669;28;19910;-80
2023/01/28 01:40:32;;;;;;;;;;;;;;;;;;1043664;28;19909;-82
2023/01/28 01:41:03;;;;;;;;;;;;;;;;;;1043722;28;19905;-80
2023/01/28 01:41:34;;;;;;;;;;;;;;;;;;1043466;28;19909;-80
2023/01/28 01:42:06;;;;;;;;;;;;;;;;;;1038499;28;20149;-79
2023/01/28 01:42:37;;;;;;;;;;;;;;;;;;1039896;28;19913;-80
2023/01/28 01:43:08;;;;;;;;;;;;;;;;;;1043530;28;19912;-78
2023/01/28 01:43:39;;;;;;;;;;;;;;;;;;1043806;28;19913;-80
2023/01/28 01:44:11;;;;;;;;;;;;;;;;;;1043544;28;19919;-79
2023/01/28 01:44:42;;;;;;;;;;;;;;;;;;1043687;28;20287;-82
2023/01/28 01:45:13;;;;;;;;;;;;;;;;;;1043339;28;20213;-81
2023/01/28 01:45:44;;;;;;;;;;;;;;;;;;1043779;28;19954;-82
2023/01/28 01:46:15;;;;;;;;;;;;;;;;;;1043612;28;19920;-81
2023/01/28 01:46:45;;;;;;;;;;;;;;;;;;1039943;28;20261;-79
2023/01/28 01:47:17;;;;;;;;;;;;;;;;;;1039365;28;19909;-80
2023/01/28 01:47:47;;;;;;;;;;;;;;;;;;1039425;28;19913;-79
2023/01/28 01:48:18;;;;;;;;;;;;;;;;;;1039552;28;20001;-80
2023/01/28 01:48:49;;;;;;;;;;;;;;;;;;1043864;28;20004;-80
2023/01/28 01:49:20;;;;;;;;;;;;;;;;;;1043419;28;19936;-79
2023/01/28 01:49:51;;;;;;;;;;;;;;;;;;1039753;28;19921;-80
2023/01/28 01:50:22;;;;;;;;;;;;;;;;;;1043342;28;20011;-80
2023/01/28 01:50:53;;;;;;;;;;;;;;;;;;1043791;28;19963;-80
2023/01/28 01:51:24;;;;;;;;;;;;;;;;;;1043560;28;19913;-81
2023/01/28 01:51:54;;;;;;;;;;;;;;;;;;1039406;28;20643;-79
2023/01/28 01:52:26;;;;;;;;;;;;;;;;;;1039122;28;19913;-80
2023/01/28 01:52:56;;;;;;;;;;;;;;;;;;1039644;28;20008;-80
2023/01/28 01:53:27;;;;;;;;;;;;;;;;;;1039259;28;20101;-80
2023/01/28 01:53:58;;;;;;;;;;;;;;;;;;1035757;28;20483;-80
2023/01/28 01:54:29;;;;;;;;;;;;;;;;;;1035043;28;20478;-79
2023/01/28 01:55:00;;;;;;;;;;;;;;;;;;1035786;28;19949;-79
2023/01/28 01:55:31;;;;;;;;;;;;;;;;;;1039252;28;19936;-80
2023/01/28 01:56:02;;;;;;;;;;;;;;;;;;1043963;28;19916;-79
2023/01/28 01:56:33;;;;;;;;;;;;;;;;;;1043609;28;19912;-79
2023/01/28 01:57:03;;;;;;;;;;;;;;;;;;1043583;28;19996;-81
2023/01/28 01:57:34;;;;;;;;;;;;;;;;;;1043741;28;20379;-79
2023/01/28 01:58:05;;;;;;;;;;;;;;;;;;1048139;28;19912;-80
2023/01/28 01:58:36;;;;;;;;;;;;;;;;;;1048018;28;19912;-79
2023/01/28 01:59:07;;;;;;;;;;;;;;;;;;1047955;28;19912;-79
2023/01/28 01:59:38;;;;;;;;;;;;;;;;;;1043349;28;20267;-79
2023/01/28 02:00:09;;;;;;;;;;;;;;;;;;1043544;28;19908;-79
2023/01/28 02:00:40;;;;;;;;;;;;;;;;;;1043462;28;19909;-79
2023/01/28 02:01:10;;;;;;;;;;;;;;;;;;1039410;28;20623;-80
2023/01/28 02:01:41;;;;;;;;;;;;;;;;;;1035391;28;20017;-79
2023/01/28 02:02:12;;;;;;;;;;;;;;;;;;1035019;28;19917;-79
2023/01/28 02:02:43;;;;;;;;;;;;;;;;;;1035837;28;19910;-81
2023/01/28 02:03:14;;;;;;;;;;;;;;;;;;1039384;28;20403;-80
2023/01/28 02:03:45;;;;;;;;;;;;;;;;;;1039989;28;19968;-80
2023/01/28 02:04:16;;;;;;;;;;;;;;;;;;1039221;28;19916;-79
2023/01/28 02:04:47;;;;;;;;;;;;;;;;;;1039654;28;19909;-79
2023/01/28 02:05:18;;;;;;;;;;;;;;;;;;1035428;28;20323;-79
2023/01/28 02:05:49;;;;;;;;;;;;;;;;;;1035992;28;20000;-79
2023/01/28 02:06:19;;;;;;;;;;;;;;;;;;1043137;28;19920;-81
2023/01/28 02:06:50;;;;;;;;;;;;;;;;;;1040662;28;19932;-79
2023/01/28 02:07:21;;;;;;;;;;;;;;;;;;1046624;28;20406;-80
2023/01/28 02:07:53;;;;;;;;;;;;;;;;;;1044370;28;19908;-79
2023/01/28 02:08:24;;;;;;;;;;;;;;;;;;1040119;28;19909;-79
2023/01/28 02:08:58;;;;;;;;;;;;;;;;;;1040501;28;19929;-80
2023/01/28 02:09:29;;;;;;;;;;;;;;;;;;1037030;28;19910;-80
2023/01/28 02:10:00;;;;;;;;;;;;;;;;;;1040701;28;19909;-80
2023/01/28 02:10:30;;;;;;;;;;;;;;;;;;1044200;28;19916;-79
2023/01/28 02:11:01;;;;;;;;;;;;;;;;;;1044645;28;20375;-79
2023/01/28 02:11:32;;;;;;;;;;;;;;;;;;1044356;28;19948;-79
2023/01/28 02:12:03;;;;;;;;;;;;;;;;;;1044504;28;19939;-80
2023/01/28 02:12:34;;;;;;;;;;;;;;;;;;1040118;28;19995;-79
2023/01/28 02:13:05;;;;;;;;;;;;;;;;;;1040654;28;19916;-80
2023/01/28 02:13:36;;;;;;;;;;;;;;;;;;1044293;28;20036;-79
2023/01/28 02:14:07;;;;;;;;;;;;;;;;;;1040600;28;19905;-80
2023/01/28 02:14:38;;;;;;;;;;;;;;;;;;1044169;28;19976;-80
2023/01/28 02:15:09;;;;;;;;;;;;;;;;;;1044387;28;19909;-80
2023/01/28 02:15:40;;;;;;;;;;;;;;;;;;1040221;28;19925;-79
2023/01/28 02:16:10;;;;;;;;;;;;;;;;;;1044015;28;19938;-80
2023/01/28 02:16:41;;;;;;;;;;;;;;;;;;1044137;28;19909;-80
2023/01/28 02:17:12;;;;;;;;;;;;;;;;;;1044490;28;19909;-81
2023/01/28 02:17:43;;;;;;;;;;;;;;;;;;1043981;28;20015;-79
2023/01/28 02:18:14;;;;;;;;;;;;;;;;;;1043716;28;20567;-79
2023/01/28 02:18:45;;;;;;;;;;;;;;;;;;1039850;28;19913;-79
2023/01/28 02:19:16;;;;;;;;;;;;;;;;;;1040085;28;19940;-79
2023/01/28 02:19:46;;;;;;;;;;;;;;;;;;1039610;28;19910;-81
2023/01/28 02:20:17;;;;;;;;;;;;;;;;;;1040638;28;20128;-80
2023/01/28 02:20:48;;;;;;;;;;;;;;;;;;1040049;28;20378;-80
2023/01/28 02:21:19;;;;;;;;;;;;;;;;;;1040346;28;19909;-80
2023/01/28 02:21:50;;;;;;;;;;;;;;;;;;1044191;28;19912;-80
2023/01/28 02:22:21;;;;;;;;;;;;;;;;;;1044211;28;20521;-80
2023/01/28 02:22:52;;;;;;;;;;;;;;;;;;1044116;28;19908;-81
2023/01/28 02:23:23;;;;;;;;;;;;;;;;;;1044426;28;20674;-80
2023/01/28 02:23:53;;;;;;;;;;;;;;;;;;1044442;28;19909;-80
2023/01/28 02:24:24;;;;;;;;;;;;;;;;;;1043993;28;19999;-79
2023/01/28 02:24:55;;;;;;;;;;;;;;;;;;1044143;28;19909;-81
2023/01/28 02:25:26;;;;;;;;;;;;;;;;;;1040117;28;19963;-80
2023/01/28 02:25:57;;;;;;;;;;;;;;;;;;1040076;28;19909;-81
2023/01/28 02:26:28;;;;;;;;;;;;;;;;;;1040104;28;19918;-80
2023/01/28 02:26:59;;;;;;;;;;;;;;;;;;1044181;28;20407;-81
2023/01/28 02:27:30;;;;;;;;;;;;;;;;;;1044769;28;19909;-81
2023/01/28 02:28:00;;;;;;;;;;;;;;;;;;1044340;28;19933;-81
2023/01/28 02:28:32;;;;;;;;;;;;;;;;;;1044594;28;19931;-80
2023/01/28 02:29:02;;;;;;;;;;;;;;;;;;1044333;28;19928;-80
2023/01/28 02:29:33;;;;;;;;;;;;;;;;;;1044431;28;19912;-81
2023/01/28 02:30:04;;;;;;;;;;;;;;;;;;1044369;28;19948;-80
2023/01/28 02:30:35;;;;;;;;;;;;;;;;;;1044224;28;19995;-80
2023/01/28 02:31:06;;;;;;;;;;;;;;;;;;1044356;28;20407;-80
2023/01/28 02:31:37;;;;;;;;;;;;;;;;;;1044414;28;19944;-80
2023/01/28 02:32:08;;;;;;;;;;;;;;;;;;1043620;28;19909;-81
2023/01/28 02:32:38;;;;;;;;;;;;;;;;;;1044664;28;19909;-80
2023/01/28 02:33:09;;;;;;;;;;;;;;;;;;1044328;28;20008;-79
2023/01/28 02:33:40;;;;;;;;;;;;;;;;;;1044350;28;19908;-80
2023/01/28 02:34:11;;;;;;;;;;;;;;;;;;1044319;28;20560;-80
2023/01/28 02:34:42;;;;;;;;;;;;;;;;;;1040120;28;20035;-80
2023/01/28 02:35:13;;;;;;;;;;;;;;;;;;1040430;28;20311;-79
2023/01/28 02:35:44;;;;;;;;;;;;;;;;;;1044574;28;19911;-80
2023/01/28 02:36:14;;;;;;;;;;;;;;;;;;1044508;28;20407;-80
2023/01/28 02:36:45;;;;;;;;;;;;;;;;;;1044299;28;19909;-80
2023/01/28 02:37:16;;;;;;;;;;;;;;;;;;1044280;28;20202;-80
2023/01/28 02:37:47;;;;;;;;;;;;;;;;;;1044018;28;20041;-80
2023/01/28 02:38:20;;;;;;;;;;;;;;;;;;1044156;28;19909;-80
2023/01/28 02:38:51;;;;;;;;;;;;;;;;;;1040390;28;19916;-80
2023/01/28 02:39:21;;;;;;;;;;;;;;;;;;1044231;28;19951;-79
2023/01/28 02:39:52;;;;;;;;;;;;;;;;;;1043870;28;19925;-80
2023/01/28 02:40:23;;;;;;;;;;;;;;;;;;1044097;28;20293;-80
2023/01/28 02:41:05;;;;;;;;;;;;;;;;;;1044012;28;19963;-80
2023/01/28 02:41:36;;;;;;;;;;;;;;;;;;1044070;28;19919;-81
2023/01/28 02:42:06;;;;;;;;;;;;;;;;;;1039894;28;19916;-81
2023/01/28 02:42:37;;;;;;;;;;;;;;;;;;1039909;28;20367;-79
2023/01/28 02:43:08;;;;;;;;;;;;;;;;;;1040148;28;19995;-79
2023/01/28 02:43:39;;;;;;;;;;;;;;;;;;1044283;28;19912;-80
2023/01/28 02:44:10;;;;;;;;;;;;;;;;;;1044067;28;19913;-80
2023/01/28 02:44:41;;;;;;;;;;;;;;;;;;1044091;28;20419;-80
2023/01/28 02:45:12;;;;;;;;;;;;;;;;;;1044047;28;19959;-79
2023/01/28 02:48:11;;;;;;;;;;;;;;;;;;1044234;28;19920;-79
2023/01/28 02:48:42;;;;;;;;;;;;;;;;;;1043204;28;19909;-80
2023/01/28 02:49:13;;;;;;;;;;;;;;;;;;1039817;28;20515;-79
2023/01/28 02:49:44;;;;;;;;;;;;;;;;;;1040256;28;20353;-79
2023/01/28 02:50:15;;;;;;;;;;;;;;;;;;1039790;28;19920;-80
2023/01/28 02:50:45;;;;;;;;;;;;;;;;;;1040129;28;20334;-80
2023/01/28 02:51:16;;;;;;;;;;;;;;;;;;1040125;28;19913;-81
2023/01/28 02:51:47;;;;;;;;;;;;;;;;;;1040574;28;20475;-80
2023/01/28 02:52:18;;;;;;;;;;;;;;;;;;1044082;28;19916;-80
2023/01/28 02:53:42;;;;;;;;;;;;;;;;;;1048663;28;19982;-80
2023/01/28 02:54:13;;;;;;;;;;;;;;;;;;1048338;28;20360;-80
2023/01/28 02:54:44;;;;;;;;;;;;;;;;;;1044065;28;20353;-80
2023/01/28 02:55:15;;;;;;;;;;;;;;;;;;1043893;28;19916;-80
2023/01/28 02:55:46;;;;;;;;;;;;;;;;;;1044290;28;19909;-80
2023/01/28 02:56:17;;;;;;;;;;;;;;;;;;1044186;28;19974;-80
2023/01/28 02:56:48;;;;;;;;;;;;;;;;;;1044722;28;19919;-80
2023/01/28 02:57:21;;;;;;;;;;;;;;;;;;1044020;28;19920;-80
2023/01/28 02:57:52;;;;;;;;;;;;;;;;;;1044304;28;19996;-81
2023/01/28 02:58:22;;;;;;;;;;;;;;;;;;1044011;28;19919;-80
2023/01/28 02:58:53;;;;;;;;;;;;;;;;;;1044179;28;19987;-80
2023/01/28 02:59:31;;;;;;;;;;;;;;;;;;1043875;28;20394;-80
2023/01/28 03:00:01;;;;;;;;;;;;;;;;;;1044175;28;20376;-80
2023/01/28 03:00:32;;;;;;;;;;;;;;;;;;1040837;28;20368;-80
2023/01/28 03:01:03;;;;;;;;;;;;;;;;;;1044424;28;19928;-80
2023/01/28 03:01:34;;;;;;;;;;;;;;;;;;1044207;28;19909;-80
2023/01/28 03:02:05;;;;;;;;;;;;;;;;;;1044128;28;20383;-80
2023/01/28 03:02:36;;;;;;;;;;;;;;;;;;1044554;28;19913;-79
2023/01/28 03:03:07;;;;;;;;;;;;;;;;;;1048708;28;20385;-80
2023/01/28 03:03:38;;;;;;;;;;;;;;;;;;1048428;28;20379;-80
2023/01/28 03:04:09;;;;;;;;;;;;;;;;;;1048277;28;19908;-80
2023/01/28 03:04:40;;;;;;;;;;;;;;;;;;1048812;28;19954;-81
2023/01/28 03:05:10;;;;;;;;;;;;;;;;;;1048749;28;19936;-80
2023/01/28 03:06:02;;;;;;;;;;;;;;;;;;1048553;28;19908;-80
2023/01/28 03:06:34;;;;;;;;;;;;;;;;;;1048594;28;20282;-80
2023/01/28 03:07:05;;;;;;;;;;;;;;;;;;1048550;28;19955;-81
2023/01/28 03:07:36;;;;;;;;;;;;;;;;;;1044038;28;19913;-80
2023/01/28 03:09:21;;;;;;;;;;;;;;;;;;1039715;28;19909;-79
2023/01/28 03:09:47;;;;;;;;;;;;;;;;;;1045607;28;20288;-80
2023/01/28 03:10:18;;;;;;;;;;;;;;;;;;1043719;28;19943;-81
2023/01/28 03:37:20;;;;;;;;;;;;;;;;;;1048549;28;19916;-81
2023/01/28 03:37:51;;;;;;;;;;;;;;;;;;1048729;28;19998;-81
2023/01/28 03:38:22;;;;;;;;;;;;;;;;;;1048547;28;19920;-81
2023/01/28 03:38:53;;;;;;;;;;;;;;;;;;1048639;28;19973;-80
2023/01/28 03:39:24;;;;;;;;;;;;;;;;;;1048266;28;19965;-79
2023/01/28 03:39:57;;;;;;;;;;;;;;;;;;1043984;28;19941;-80
2023/01/28 03:40:27;;;;;;;;;;;;;;;;;;1043681;28;20502;-81
2023/01/28 03:40:59;;;;;;;;;;;;;;;;;;1043948;28;20372;-80
2023/01/28 03:41:30;;;;;;;;;;;;;;;;;;1044616;28;20376;-81
2023/01/28 03:42:01;;;;;;;;;;;;;;;;;;1043929;28;20557;-81
2023/01/28 03:42:32;;;;;;;;;;;;;;;;;;1043898;28;20503;-81
2023/01/28 03:43:03;;;;;;;;;;;;;;;;;;1043948;28;20375;-80
2023/01/28 03:43:34;;;;;;;;;;;;;;;;;;1043646;28;19970;-81
2023/01/28 03:44:54;;;;;;;;;;;;;;;;;;1043854;28;20306;-80
2023/01/28 03:45:25;;;;;;;;;;;;;;;;;;1046858;28;20378;-80
2023/01/28 03:45:56;;;;;;;;;;;;;;;;;;1044126;28;20532;-80
2023/01/28 03:46:27;;;;;;;;;;;;;;;;;;1043738;28;19913;-81
2023/01/28 03:46:58;;;;;;;;;;;;;;;;;;1044113;28;20443;-80
2023/01/28 03:47:29;;;;;;;;;;;;;;;;;;1043957;28;19942;-80
2023/01/28 03:48:00;;;;;;;;;;;;;;;;;;1039699;28;20598;-81
2023/01/28 03:48:31;;;;;;;;;;;;;;;;;;1039731;28;19924;-81
2023/01/28 03:49:01;;;;;;;;;;;;;;;;;;1040103;28;19913;-81
2023/01/28 03:49:32;;;;;;;;;;;;;;;;;;1039955;28;19952;-80
2023/01/28 03:50:06;;;;;;;;;;;;;;;;;;1043886;28;19916;-80
2023/01/28 03:50:36;;;;;;;;;;;;;;;;;;1043817;28;19943;-81
2023/01/28 03:51:07;;;;;;;;;;;;;;;;;;1043752;28;19919;-80
2023/01/28 03:51:41;;;;;;;;;;;;;;;;;;1039852;28;19917;-80
2023/01/28 03:52:12;;;;;;;;;;;;;;;;;;1040164;28;19913;-81
2023/01/28 03:52:43;;;;;;;;;;;;;;;;;;1040005;28;19948;-81
2023/01/28 03:53:14;;;;;;;;;;;;;;;;;;1039602;28;19913;-79
2023/01/28 03:53:45;;;;;;;;;;;;;;;;;;1040240;28;19963;-80
2023/01/28 03:54:16;;;;;;;;;;;;;;;;;;1043639;28;19912;-81
2023/01/28 03:54:47;;;;;;;;;;;;;;;;;;1043995;28;20435;-80
2023/01/28 03:55:18;;;;;;;;;;;;;;;;;;1043473;28;19919;-81
2023/01/28 03:55:49;;;;;;;;;;;;;;;;;;1043925;28;19919;-81
2023/01/28 03:56:23;;;;;;;;;;;;;;;;;;1043613;28;20423;-80
2023/01/28 03:56:54;;;;;;;;;;;;;;;;;;1043728;28;19999;-80
2023/01/28 03:57:25;;;;;;;;;;;;;;;;;;1044579;28;19912;-80
2023/01/28 03:57:55;;;;;;;;;;;;;;;;;;1048628;28;19913;-80
2023/01/28 03:58:45;;;;;;;;;;;;;;;;;;1047887;28;19919;-80
2023/01/28 03:59:16;;;;;;;;;;;;;;;;;;1048263;28;19919;-79
2023/01/28 03:59:50;;;;;;;;;;;;;;;;;;1048438;28;19916;-81
2023/01/28 04:00:22;;;;;;;;;;;;;;;;;;1043501;28;19935;-80
2023/01/28 04:00:53;;;;;;;;;;;;;;;;;;1043926;28;19928;-80
2023/01/28 04:01:24;;;;;;;;;;;;;;;;;;1043797;28;19916;-80
2023/01/28 04:01:55;;;;;;;;;;;;;;;;;;1043962;28;19948;-80
2023/01/28 04:02:26;;;;;;;;;;;;;;;;;;1044162;28;19909;-80
2023/01/28 04:02:57;;;;;;;;;;;;;;;;;;1048440;28;20363;-80
2023/01/28 04:03:27;;;;;;;;;;;;;;;;;;1048145;28;19914;-79
2023/01/28 04:03:58;;;;;;;;;;;;;;;;;;1044099;28;20457;-81
2023/01/28 04:04:31;;;;;;;;;;;;;;;;;;1043798;28;19962;-81
2023/01/28 04:05:05;;;;;;;;;;;;;;;;;;1043591;28;19909;-80
2023/01/28 04:05:36;;;;;;;;;;;;;;;;;;1043861;28;19909;-79